Time;durP1;ratioP1;P1;durP2;ratioP2;P2;SDS_P1;SDS_P2;PMS_P1;PMS_P2;Temp;Humidity;BMP_temperature;BMP_pressure;BME280_temperature;BME280_humidity;BME280_pressure;Samples;Min_cycle;Max_cycle;Signal;HPM_P1;HPM_P2
2021/11/25 00:00:05;;;;;;;;;;;;;;;21.20;28.05;95173.59;1041221;28;1454;-56
2021/11/25 00:00:35;;;;;;;;;;;;;;;21.22;28.30;95178.56;1044080;28;1358;-53
2021/11/25 00:01:06;;;;;;;;;;;;;;;21.21;27.96;95184.88;1044390;28;1073;-56
2021/11/25 00:01:36;;;;;;;;;;;;;;;21.20;28.38;95176.22;1044295;28;1111;-56
2021/11/25 00:02:06;;;;;;;;;;;;;;;21.21;28.16;95179.63;1043877;28;1269;-55
2021/11/25 00:02:37;;;;;;;;;;;;;;;21.22;28.13;95178.56;1044456;28;1155;-59
2021/11/25 00:03:07;;;;;;;;;;;;;;;21.20;28.45;95178.06;1044581;28;1435;-58
2021/11/25 00:03:38;;;;;;;;;;;;;;;21.19;27.95;95179.91;1041996;28;1593;-56
2021/11/25 00:04:09;;;;;;;;;;;;;;;21.19;28.23;95176.50;1040510;28;1960;-58
2021/11/25 00:04:39;;;;;;;;;;;;;;;21.19;28.32;95173.84;1042022;28;1886;-56
2021/11/25 00:05:10;;;;;;;;;;;;;;;21.20;28.23;95178.06;1044736;28;1444;-58
2021/11/25 00:05:40;;;;;;;;;;;;;;;21.20;28.13;95178.06;1044796;28;1327;-58
2021/11/25 00:06:10;;;;;;;;;;;;;;;21.19;28.08;95169.38;1046134;28;2179;-58
2021/11/25 00:06:41;;;;;;;;;;;;;;;21.19;28.01;95171.22;1045399;28;1201;-57
2021/11/25 00:07:11;;;;;;;;;;;;;;;21.19;28.18;95168.59;1044775;28;800;-56
2021/11/25 00:07:41;;;;;;;;;;;;;;;21.19;28.36;95168.59;1044428;28;1218;-58
2021/11/25 00:08:12;;;;;;;;;;;;;;;21.18;27.71;95167.81;1045025;28;829;-58
2021/11/25 00:08:42;;;;;;;;;;;;;;;21.17;28.17;95168.88;1043910;28;1387;-56
2021/11/25 00:09:12;;;;;;;;;;;;;;;21.18;28.19;95159.13;1041435;28;1731;-57
2021/11/25 00:09:43;;;;;;;;;;;;;;;21.17;27.80;95163.59;1043561;28;1887;-58
2021/11/25 00:10:14;;;;;;;;;;;;;;;21.18;28.01;95169.66;1044890;28;1054;-56
2021/11/25 00:10:44;;;;;;;;;;;;;;;21.18;28.03;95164.41;1044304;28;1177;-58
2021/11/25 00:11:15;;;;;;;;;;;;;;;21.18;28.08;95164.41;1044138;28;1402;-54
2021/11/25 00:11:45;;;;;;;;;;;;;;;21.17;28.13;95166.25;1043927;28;1218;-54
2021/11/25 00:12:16;;;;;;;;;;;;;;;21.18;28.30;95164.41;1043069;28;2167;-57
2021/11/25 00:12:46;;;;;;;;;;;;;;;21.17;28.20;95166.25;1044073;28;1163;-58
2021/11/25 00:13:16;;;;;;;;;;;;;;;21.18;28.17;95162.56;1044865;28;975;-54
2021/11/25 00:13:47;;;;;;;;;;;;;;;21.18;27.84;95169.66;1044708;28;1139;-56
2021/11/25 00:14:18;;;;;;;;;;;;;;;21.17;28.04;95163.59;1044441;28;962;-55
2021/11/25 00:14:48;;;;;;;;;;;;;;;21.17;28.15;95157.53;1042962;28;1967;-58
2021/11/25 00:15:18;;;;;;;;;;;;;;;21.17;28.26;95157.53;1044606;28;1127;-58
2021/11/25 00:15:49;;;;;;;;;;;;;;;21.16;28.00;95156.78;1043394;28;1256;-57
2021/11/25 00:16:19;;;;;;;;;;;;;;;21.16;27.84;95162.06;1044133;28;1570;-57
2021/11/25 00:16:49;;;;;;;;;;;;;;;21.16;28.33;95151.53;1040068;28;1238;-56
2021/11/25 00:17:20;;;;;;;;;;;;;;;21.17;28.50;95157.53;1038905;28;1704;-57
2021/11/25 00:17:50;;;;;;;;;;;;;;;21.16;27.67;95156.78;1039870;28;1158;-58
2021/11/25 00:18:20;;;;;;;;;;;;;;;21.16;27.83;95158.63;1038974;28;1399;-57
2021/11/25 00:18:51;;;;;;;;;;;;;;;21.16;28.20;95163.91;1043758;28;1057;-54
2021/11/25 00:19:21;;;;;;;;;;;;;;;21.17;27.81;95152.28;1044096;28;1969;-58
2021/11/25 00:19:51;;;;;;;;;;;;;;;21.17;28.12;95149.63;1042908;28;1902;-58
2021/11/25 00:20:21;;;;;;;;;;;;;;;21.18;28.02;95148.59;1044405;28;1422;-57
2021/11/25 00:20:53;;;;;;;;;;;;;;;21.17;27.87;95152.28;1044462;28;1150;-56
2021/11/25 00:21:23;;;;;;;;;;;;;;;21.17;28.32;95149.63;1044628;28;1028;-58
2021/11/25 00:21:53;;;;;;;;;;;;;;;21.16;27.88;95140.97;1043503;28;2207;-58
2021/11/25 00:22:24;;;;;;;;;;;;;;;21.16;27.85;95137.56;1042667;28;1876;-56
2021/11/25 00:22:54;;;;;;;;;;;;;;;21.17;27.96;95144.38;1044173;28;1383;-58
2021/11/25 00:23:25;;;;;;;;;;;;;;;21.15;28.06;95131.50;1044039;28;1643;-57
2021/11/25 00:23:55;;;;;;;;;;;;;;;21.16;27.83;95137.56;1043917;28;1022;-55
2021/11/25 00:24:25;;;;;;;;;;;;;;;21.17;28.02;95139.09;1043748;28;1138;-54
2021/11/25 00:24:55;;;;;;;;;;;;;;;21.16;28.16;95140.97;1043789;28;2077;-56
2021/11/25 00:25:26;;;;;;;;;;;;;;;21.16;27.96;95138.34;1044398;28;1142;-57
2021/11/25 00:25:56;;;;;;;;;;;;;;;21.16;27.99;95133.06;1044566;28;1165;-56
2021/11/25 00:26:27;;;;;;;;;;;;;;;21.17;27.68;95139.88;1044696;28;1142;-57
2021/11/25 00:26:57;;;;;;;;;;;;;;;21.15;27.81;95144.66;1044254;28;1048;-59
2021/11/25 00:27:27;;;;;;;;;;;;;;;21.17;27.92;95136.47;1043947;28;1178;-55
2021/11/25 00:27:58;;;;;;;;;;;;;;;21.16;27.76;95135.72;1044216;28;1112;-58
2021/11/25 00:28:28;;;;;;;;;;;;;;;21.15;27.63;95138.59;1044560;28;1183;-58
2021/11/25 00:28:59;;;;;;;;;;;;;;;21.15;28.05;95143.88;1044855;28;1197;-54
2021/11/25 00:29:29;;;;;;;;;;;;;;;21.15;28.21;95135.97;1043907;28;1880;-55
2021/11/25 00:29:59;;;;;;;;;;;;;;;21.15;27.79;95139.41;1042304;28;1832;-58
2021/11/25 00:30:30;;;;;;;;;;;;;;;21.15;27.96;95130.69;1043213;28;1862;-57
2021/11/25 00:31:00;;;;;;;;;;;;;;;21.15;27.75;95135.97;1044187;28;1049;-53
2021/11/25 00:31:31;;;;;;;;;;;;;;;21.14;28.11;95143.13;1040354;28;1447;-57
2021/11/25 00:32:01;;;;;;;;;;;;;;;21.13;27.63;95138.91;1037237;28;1600;-57
2021/11/25 00:32:31;;;;;;;;;;;;;;;21.14;27.88;95132.59;1042167;28;1201;-57
2021/11/25 00:33:02;;;;;;;;;;;;;;;21.15;28.12;95133.34;1040187;28;1182;-57
2021/11/25 00:33:32;;;;;;;;;;;;;;;21.14;27.97;95129.94;1044136;28;1289;-57
2021/11/25 00:34:02;;;;;;;;;;;;;;;21.15;28.04;95131.50;1043604;28;1025;-58
2021/11/25 00:34:33;;;;;;;;;;;;;;;21.15;28.00;95134.13;1043110;28;2000;-57
2021/11/25 00:35:04;;;;;;;;;;;;;;;21.14;27.65;95131.78;1044423;28;977;-57
2021/11/25 00:35:34;;;;;;;;;;;;;;;21.15;27.98;95135.97;1042798;28;1450;-55
2021/11/25 00:36:04;;;;;;;;;;;;;;;21.15;27.95;95133.34;1039712;28;1518;-55
2021/11/25 00:36:35;;;;;;;;;;;;;;;21.14;27.86;95135.22;1040208;28;1151;-58
2021/11/25 00:37:05;;;;;;;;;;;;;;;21.14;27.37;95126.53;1040729;28;1261;-57
2021/11/25 00:37:37;;;;;;;;;;;;;;;21.14;28.33;95132.59;1044257;28;1166;-55
2021/11/25 00:38:08;;;;;;;;;;;;;;;21.14;27.93;95132.59;1042870;28;1430;-58
2021/11/25 00:38:38;;;;;;;;;;;;;;;21.15;27.88;95128.06;1043983;28;1245;-55
2021/11/25 00:39:08;;;;;;;;;;;;;;;21.14;27.89;95124.69;1044219;28;1128;-58
2021/11/25 00:39:38;;;;;;;;;;;;;;;21.14;28.19;95122.03;1043045;28;1941;-55
2021/11/25 00:40:10;;;;;;;;;;;;;;;21.14;27.99;95131.78;1046426;28;1461;-57
2021/11/25 00:40:40;;;;;;;;;;;;;;;21.15;27.98;95122.78;1043741;28;1189;-58
2021/11/25 00:41:10;;;;;;;;;;;;;;;21.14;27.85;95129.16;1044539;28;829;-56
2021/11/25 00:41:41;;;;;;;;;;;;;;;21.15;27.99;95130.69;1044311;28;1145;-55
2021/11/25 00:42:11;;;;;;;;;;;;;;;21.14;27.91;95126.53;1041631;28;2179;-56
2021/11/25 00:42:41;;;;;;;;;;;;;;;21.14;27.88;95126.53;1043008;28;1388;-53
2021/11/25 00:43:12;;;;;;;;;;;;;;;21.15;28.10;95128.84;1044311;28;1194;-58
2021/11/25 00:43:42;;;;;;;;;;;;;;;21.16;27.97;95132.28;1044032;28;1189;-58
2021/11/25 00:44:13;;;;;;;;;;;;;;;21.15;28.06;95133.34;1048237;28;828;-57
2021/11/25 00:44:43;;;;;;;;;;;;;;;21.14;27.74;95131.78;1043571;28;1846;-57
2021/11/25 00:45:14;;;;;;;;;;;;;;;21.14;28.05;95131.78;1044639;28;1186;-56
2021/11/25 00:45:44;;;;;;;;;;;;;;;21.15;27.96;95133.34;1044465;28;1355;-56
2021/11/25 00:46:15;;;;;;;;;;;;;;;21.14;28.03;95137.06;1044324;28;1138;-58
2021/11/25 00:46:45;;;;;;;;;;;;;;;21.14;27.78;95129.16;1044179;28;1861;-52
2021/11/25 00:47:16;;;;;;;;;;;;;;;21.15;27.98;95133.34;1044288;28;851;-56
2021/11/25 00:47:46;;;;;;;;;;;;;;;21.14;28.12;95134.44;1042302;28;1403;-56
2021/11/25 00:48:16;;;;;;;;;;;;;;;21.14;27.98;95131.78;1042280;28;1222;-56
2021/11/25 00:48:47;;;;;;;;;;;;;;;21.14;27.90;95129.16;1043571;28;1139;-58
2021/11/25 00:49:17;;;;;;;;;;;;;;;21.14;27.78;95129.94;1044677;28;1192;-58
2021/11/25 00:49:47;;;;;;;;;;;;;;;21.14;27.83;95126.53;1043654;28;1903;-57
2021/11/25 00:50:18;;;;;;;;;;;;;;;21.14;27.79;95132.59;1044726;28;939;-56
2021/11/25 00:50:48;;;;;;;;;;;;;;;21.13;27.97;95131.00;1040931;28;1122;-61
2021/11/25 00:51:19;;;;;;;;;;;;;;;21.14;27.95;95134.44;1043593;28;1613;-55
2021/11/25 00:51:49;;;;;;;;;;;;;;;21.12;27.52;95126.03;1044118;28;1131;-56
2021/11/25 00:52:19;;;;;;;;;;;;;;;21.13;27.89;95127.59;1043159;28;1620;-54
2021/11/25 00:52:50;;;;;;;;;;;;;;;21.12;27.58;95129.44;1044103;28;1196;-56
2021/11/25 00:53:20;;;;;;;;;;;;;;;21.13;27.79;95124.94;1042369;28;1423;-55
2021/11/25 00:53:51;;;;;;;;;;;;;;;21.13;28.13;95130.22;1043994;28;1072;-54
2021/11/25 00:54:21;;;;;;;;;;;;;;;21.12;27.83;95126.81;1043760;28;1178;-55
2021/11/25 00:54:51;;;;;;;;;;;;;;;21.12;27.64;95124.19;1043126;28;1822;-58
2021/11/25 00:55:21;;;;;;;;;;;;;;;21.12;27.73;95128.66;1044310;28;1166;-58
2021/11/25 00:55:52;;;;;;;;;;;;;;;21.12;27.85;95126.81;1044147;28;1229;-54
2021/11/25 00:56:22;;;;;;;;;;;;;;;21.12;27.86;95118.91;1043910;28;1177;-58
2021/11/25 00:56:53;;;;;;;;;;;;;;;21.13;28.19;95123.09;1044596;28;1061;-57
2021/11/25 00:57:23;;;;;;;;;;;;;;;21.13;27.88;95128.38;1044570;28;1162;-58
2021/11/25 00:57:53;;;;;;;;;;;;;;;21.13;27.75;95119.69;1044375;28;1065;-58
2021/11/25 00:58:24;;;;;;;;;;;;;;;21.13;28.04;95122.31;1043276;28;2426;-54
2021/11/25 00:58:54;;;;;;;;;;;;;;;21.13;27.94;95119.69;1042672;28;1832;-57
2021/11/25 00:59:24;;;;;;;;;;;;;;;21.13;27.99;95119.69;1044008;28;1918;-56
2021/11/25 00:59:55;;;;;;;;;;;;;;;21.12;27.79;95118.91;1042066;28;2154;-58
2021/11/25 01:00:25;;;;;;;;;;;;;;;21.12;28.18;95124.19;1041654;28;1103;-55
2021/11/25 01:00:55;;;;;;;;;;;;;;;21.14;28.17;95126.53;1044279;28;1017;-58
2021/11/25 01:01:25;;;;;;;;;;;;;;;21.13;27.77;95119.69;1043432;28;1233;-55
2021/11/25 01:01:56;;;;;;;;;;;;;;;21.14;27.88;95126.53;1044120;28;1013;-58
2021/11/25 01:02:26;;;;;;;;;;;;;;;21.13;27.80;95127.59;1043384;28;1155;-52
2021/11/25 01:02:56;;;;;;;;;;;;;;;21.12;27.66;95131.31;1044305;28;1257;-57
2021/11/25 01:03:27;;;;;;;;;;;;;;;21.11;27.76;95133.16;1044254;28;1159;-58
2021/11/25 01:03:57;;;;;;;;;;;;;;;21.12;27.80;95120.75;1043562;28;1009;-57
2021/11/25 01:04:27;;;;;;;;;;;;;;;21.11;27.56;95121.81;1044071;28;1143;-55
2021/11/25 01:04:58;;;;;;;;;;;;;;;21.12;27.54;95126.03;1043907;28;1926;-54
2021/11/25 01:05:28;;;;;;;;;;;;;;;21.11;27.66;95132.38;1045601;28;1166;-56
2021/11/25 01:05:58;;;;;;;;;;;;;;;21.11;27.66;95122.59;1045094;28;1312;-55
2021/11/25 01:06:29;;;;;;;;;;;;;;;21.13;27.63;95127.59;1043657;28;2230;-58
2021/11/25 01:06:59;;;;;;;;;;;;;;;21.12;27.63;95124.19;1045120;28;1220;-52
2021/11/25 01:07:31;;;;;;;;;;;;;;;21.12;28.04;95115.50;1043514;28;2203;-58
2021/11/25 01:08:02;;;;;;;;;;;;;;;21.11;27.52;95119.97;1045632;28;1846;-57
2021/11/25 01:08:32;;;;;;;;;;;;;;;21.12;27.65;95123.41;1042720;28;1578;-58
2021/11/25 01:09:03;;;;;;;;;;;;;;;21.13;28.14;95122.31;1044099;28;836;-58
2021/11/25 01:09:33;;;;;;;;;;;;;;;21.12;27.72;95115.50;1040663;28;1464;-55
2021/11/25 01:10:04;;;;;;;;;;;;;;;21.12;28.15;95116.28;1039838;28;2287;-58
2021/11/25 01:10:34;;;;;;;;;;;;;;;21.12;28.01;95121.53;1043435;28;1147;-56
2021/11/25 01:11:05;;;;;;;;;;;;;;;21.12;27.59;95107.59;1040896;28;1502;-56
2021/11/25 01:11:35;;;;;;;;;;;;;;;21.11;28.08;95114.69;1044146;28;1154;-56
2021/11/25 01:12:06;;;;;;;;;;;;;;;21.12;27.91;95112.84;1044465;28;1033;-57
2021/11/25 01:12:36;;;;;;;;;;;;;;;21.12;28.13;95112.84;1040618;28;1187;-59
2021/11/25 01:13:07;;;;;;;;;;;;;;;21.12;27.58;95118.13;1044858;28;1058;-54
2021/11/25 01:13:37;;;;;;;;;;;;;;;21.12;27.90;95118.13;1044488;28;1106;-57
2021/11/25 01:14:08;;;;;;;;;;;;;;;21.11;28.22;95116.56;1044927;28;1160;-56
2021/11/25 01:14:38;;;;;;;;;;;;;;;21.12;27.89;95112.84;1044133;28;1934;-58
2021/11/25 01:15:09;;;;;;;;;;;;;;;21.11;27.82;95109.44;1044528;28;1507;-58
2021/11/25 01:15:39;;;;;;;;;;;;;;;21.12;27.78;95112.84;1040890;28;1245;-55
2021/11/25 01:16:10;;;;;;;;;;;;;;;21.11;27.69;95106.78;1036770;28;1305;-56
2021/11/25 01:16:40;;;;;;;;;;;;;;;21.11;28.08;95106.78;1039107;28;1376;-55
2021/11/25 01:17:11;;;;;;;;;;;;;;;21.12;27.98;95110.22;1044669;28;780;-57
2021/11/25 01:17:41;;;;;;;;;;;;;;;21.12;27.52;95107.59;1048626;28;1310;-59
2021/11/25 01:18:13;;;;;;;;;;;;;;;21.11;27.77;95104.16;1045774;28;1174;-53
2021/11/25 01:18:43;;;;;;;;;;;;;;;21.11;27.63;95106.78;1044305;28;1170;-58
2021/11/25 01:19:13;;;;;;;;;;;;;;;21.11;27.69;95111.28;1045226;28;1225;-58
2021/11/25 01:19:44;;;;;;;;;;;;;;;21.11;27.77;95106.00;1042289;28;2007;-56
2021/11/25 01:20:16;;;;;;;;;;;;;;;21.09;27.62;95103.66;1044822;28;1489;-56
2021/11/25 01:20:47;;;;;;;;;;;;;;;21.09;28.04;95103.66;1038896;28;1477;-53
2021/11/25 01:21:18;;;;;;;;;;;;;;;21.09;27.87;95103.66;1044001;28;868;-55
2021/11/25 01:21:48;;;;;;;;;;;;;;;21.10;28.02;95099.19;1043321;28;1524;-57
2021/11/25 01:22:18;;;;;;;;;;;;;;;21.10;27.87;95099.19;1043950;28;1390;-56
2021/11/25 01:22:48;;;;;;;;;;;;;;;21.11;27.92;95093.63;1042153;28;993;-54
2021/11/25 01:23:20;;;;;;;;;;;;;;;21.11;27.69;95098.88;1045055;28;1162;-56
2021/11/25 01:23:50;;;;;;;;;;;;;;;21.11;27.88;95092.84;1045126;28;1096;-56
2021/11/25 01:24:20;;;;;;;;;;;;;;;21.11;27.60;95103.38;1044711;28;1111;-57
2021/11/25 01:24:51;;;;;;;;;;;;;;;21.11;28.20;95100.75;1044664;28;1358;-53
2021/11/25 01:25:21;;;;;;;;;;;;;;;21.10;27.78;95099.97;1039836;28;2145;-56
2021/11/25 01:25:52;;;;;;;;;;;;;;;21.11;28.00;95100.75;1040973;28;1320;-56
2021/11/25 01:26:22;;;;;;;;;;;;;;;21.11;27.93;95095.47;1036433;28;1451;-56
2021/11/25 01:26:52;;;;;;;;;;;;;;;21.11;27.39;95100.75;1036258;28;1443;-58
2021/11/25 01:27:23;;;;;;;;;;;;;;;21.10;27.76;95097.34;1040567;28;1119;-57
2021/11/25 01:27:53;;;;;;;;;;;;;;;21.10;28.00;95099.19;1040856;28;1046;-57
2021/11/25 01:28:24;;;;;;;;;;;;;;;21.11;28.03;95090.97;1045112;28;1138;-58
2021/11/25 01:28:54;;;;;;;;;;;;;;;21.10;27.92;95094.72;1045012;28;1138;-53
2021/11/25 01:29:24;;;;;;;;;;;;;;;21.11;27.44;95098.09;1044702;28;1588;-58
2021/11/25 01:29:55;;;;;;;;;;;;;;;21.10;27.59;95097.34;1044880;28;1017;-55
2021/11/25 01:30:25;;;;;;;;;;;;;;;21.09;27.77;95098.41;1042865;28;1810;-55
2021/11/25 01:30:56;;;;;;;;;;;;;;;21.10;28.02;95107.88;1045011;28;1187;-56
2021/11/25 01:31:26;;;;;;;;;;;;;;;21.11;27.85;95103.38;1045106;28;1265;-55
2021/11/25 01:31:57;;;;;;;;;;;;;;;21.10;27.81;95099.19;1045032;28;1077;-58
2021/11/25 01:32:27;;;;;;;;;;;;;;;21.11;27.60;95098.09;1043785;28;1162;-58
2021/11/25 01:32:57;;;;;;;;;;;;;;;21.11;28.11;95098.88;1045157;28;958;-58
2021/11/25 01:33:28;;;;;;;;;;;;;;;21.11;27.76;95106.78;1044157;28;2210;-58
2021/11/25 01:33:59;;;;;;;;;;;;;;;21.11;27.80;95100.75;1043864;28;2112;-57
2021/11/25 01:34:29;;;;;;;;;;;;;;;21.10;27.62;95096.56;1044266;28;1180;-58
2021/11/25 01:34:59;;;;;;;;;;;;;;;21.11;27.99;95100.75;1044752;28;1046;-57
2021/11/25 01:35:30;;;;;;;;;;;;;;;21.10;27.56;95094.72;1043451;28;1859;-58
2021/11/25 01:36:00;;;;;;;;;;;;;;;21.11;28.05;95098.09;1044771;28;1319;-56
2021/11/25 01:36:30;;;;;;;;;;;;;;;21.10;27.80;95096.56;1045477;28;1114;-59
2021/11/25 01:37:01;;;;;;;;;;;;;;;21.10;27.71;95093.91;1044994;28;1022;-58
2021/11/25 01:37:32;;;;;;;;;;;;;;;21.10;27.43;95101.81;1045065;28;1110;-58
2021/11/25 01:38:03;;;;;;;;;;;;;;;21.10;27.62;95096.56;1044760;28;1650;-56
2021/11/25 01:38:33;;;;;;;;;;;;;;;21.10;27.71;95093.91;1044779;28;1236;-54
2021/11/25 01:39:05;;;;;;;;;;;;;;;21.08;27.78;95094.97;1044996;28;1166;-56
2021/11/25 01:39:35;;;;;;;;;;;;;;;21.09;27.69;95093.13;1044768;28;1898;-58
2021/11/25 01:40:06;;;;;;;;;;;;;;;21.09;27.48;95093.13;1042839;28;1571;-57
2021/11/25 01:40:37;;;;;;;;;;;;;;;21.08;27.73;95094.97;1044175;28;1938;-57
2021/11/25 01:41:07;;;;;;;;;;;;;;;21.09;27.38;95093.13;1041605;28;1710;-56
2021/11/25 01:41:38;;;;;;;;;;;;;;;21.08;27.67;95088.16;1043699;28;1081;-58
2021/11/25 01:42:09;;;;;;;;;;;;;;;21.10;27.73;95089.44;1044742;28;1037;-56
2021/11/25 01:42:39;;;;;;;;;;;;;;;21.10;27.72;95093.91;1044474;28;1233;-56
2021/11/25 01:43:10;;;;;;;;;;;;;;;21.10;27.76;95084.16;1044627;28;1227;-59
2021/11/25 01:43:40;;;;;;;;;;;;;;;21.10;27.73;95088.66;1044416;28;1205;-59
2021/11/25 01:44:10;;;;;;;;;;;;;;;21.10;27.72;95089.44;1044962;28;1100;-58
2021/11/25 01:44:41;;;;;;;;;;;;;;;21.10;27.76;95086.00;1039361;28;1265;-58
2021/11/25 01:45:11;;;;;;;;;;;;;;;21.09;28.09;95087.84;1044549;28;1269;-59
2021/11/25 01:45:42;;;;;;;;;;;;;;;21.09;27.77;95082.59;1044228;28;2056;-59
2021/11/25 01:46:13;;;;;;;;;;;;;;;21.08;27.92;95089.72;1044176;28;1588;-56
2021/11/25 01:46:43;;;;;;;;;;;;;;;21.08;27.87;95090.78;1044943;28;1837;-57
2021/11/25 01:47:14;;;;;;;;;;;;;;;21.08;27.93;95089.72;1044928;28;1062;-58
2021/11/25 01:47:45;;;;;;;;;;;;;;;21.08;27.95;95089.72;1042255;28;1870;-59
2021/11/25 01:48:15;;;;;;;;;;;;;;;21.08;27.80;95080.25;1042096;28;1317;-57
2021/11/25 01:48:49;;;;;;;;;;;;;;;21.10;27.86;95088.66;1040086;28;1166;-57
2021/11/25 01:49:19;;;;;;;;;;;;;;;21.10;27.87;95083.38;1041315;28;1099;-58
2021/11/25 01:49:49;;;;;;;;;;;;;;;21.08;27.90;95081.81;1044046;28;1726;-59
2021/11/25 01:50:20;;;;;;;;;;;;;;;21.08;27.66;95082.88;1044876;28;1209;-56
2021/11/25 01:50:50;;;;;;;;;;;;;;;21.06;27.82;95078.69;1043448;28;1837;-58
2021/11/25 01:51:21;;;;;;;;;;;;;;;21.08;28.00;95074.97;1041311;28;1762;-58
2021/11/25 01:51:51;;;;;;;;;;;;;;;21.08;27.50;95074.97;1045182;28;1187;-56
2021/11/25 01:52:22;;;;;;;;;;;;;;;21.07;28.10;95071.56;1044575;28;1091;-57
2021/11/25 01:52:52;;;;;;;;;;;;;;;21.08;27.79;95074.97;1044877;28;1193;-57
2021/11/25 01:53:23;;;;;;;;;;;;;;;21.07;27.99;95074.19;1044317;28;1549;-53
2021/11/25 01:53:53;;;;;;;;;;;;;;;21.06;27.68;95078.69;1044966;28;934;-55
2021/11/25 01:54:24;;;;;;;;;;;;;;;21.08;27.46;95072.34;1044382;28;1123;-54
2021/11/25 01:54:54;;;;;;;;;;;;;;;21.06;27.64;95070.78;1045214;28;1111;-58
2021/11/25 01:55:25;;;;;;;;;;;;;;;21.07;27.75;95079.47;1045201;28;1127;-59
2021/11/25 01:55:55;;;;;;;;;;;;;;;21.07;27.72;95074.19;1044154;28;1942;-56
2021/11/25 01:56:26;;;;;;;;;;;;;;;21.08;27.72;95075.78;1044786;28;1063;-56
2021/11/25 01:56:56;;;;;;;;;;;;;;;21.08;27.64;95072.34;1045298;28;1100;-56
2021/11/25 01:57:26;;;;;;;;;;;;;;;21.08;27.66;95072.34;1045111;28;1238;-57
2021/11/25 01:57:56;;;;;;;;;;;;;;;21.08;27.65;95072.34;1044142;28;1834;-57
2021/11/25 01:58:27;;;;;;;;;;;;;;;21.08;27.74;95077.63;1045069;28;1000;-57
2021/11/25 01:58:57;;;;;;;;;;;;;;;21.08;27.52;95074.97;1044945;28;1014;-58
2021/11/25 01:59:28;;;;;;;;;;;;;;;21.06;27.54;95073.41;1043650;28;1905;-59
2021/11/25 01:59:58;;;;;;;;;;;;;;;21.06;27.46;95073.41;1042543;28;2247;-58
2021/11/25 02:00:33;;;;;;;;;;;;;;;21.07;27.73;95068.94;1042031;28;1052;-59
2021/11/25 02:01:06;;;;;;;;;;;;;;;21.06;27.84;95070.78;1044175;28;1930;-54
2021/11/25 02:01:36;;;;;;;;;;;;;;;21.06;27.76;95067.38;1045261;28;1083;-55
2021/11/25 02:02:06;;;;;;;;;;;;;;;21.05;27.63;95063.97;1044585;28;1107;-57
2021/11/25 02:02:37;;;;;;;;;;;;;;;21.07;27.63;95068.94;1044619;28;1162;-58
2021/11/25 02:03:07;;;;;;;;;;;;;;;21.05;27.37;95057.91;1044976;28;1097;-57
2021/11/25 02:03:38;;;;;;;;;;;;;;;21.06;27.86;95068.13;1044028;28;1130;-57
2021/11/25 02:04:09;;;;;;;;;;;;;;;21.06;27.57;95068.13;1044365;28;1960;-56
2021/11/25 02:04:39;;;;;;;;;;;;;;;21.06;27.70;95065.50;1044307;28;1182;-57
2021/11/25 02:05:09;;;;;;;;;;;;;;;21.06;27.60;95057.59;1045189;28;1143;-57
2021/11/25 02:05:40;;;;;;;;;;;;;;;21.06;27.43;95056.84;1044881;28;1241;-58
2021/11/25 02:06:10;;;;;;;;;;;;;;;21.07;27.95;95066.28;1044238;28;2171;-56
2021/11/25 02:06:41;;;;;;;;;;;;;;;21.06;27.26;95057.59;1044428;28;1476;-55
2021/11/25 02:07:11;;;;;;;;;;;;;;;21.06;27.67;95056.84;1044707;28;875;-59
2021/11/25 02:07:41;;;;;;;;;;;;;;;21.08;27.77;95059.19;1044921;28;1139;-57
2021/11/25 02:08:12;;;;;;;;;;;;;;;21.06;27.73;95049.69;1044851;28;815;-53
2021/11/25 02:08:42;;;;;;;;;;;;;;;21.08;27.72;95053.91;1041764;28;1367;-56
2021/11/25 02:09:14;;;;;;;;;;;;;;;21.06;27.76;95054.19;1040450;28;1791;-57
2021/11/25 02:09:58;;;;;;;;;;;;;;;21.05;27.70;95045.50;1039222;28;955;-56
2021/11/25 02:10:28;;;;;;;;;;;;;;;21.06;28.03;95041.78;1042636;28;1159;-57
2021/11/25 02:10:59;;;;;;;;;;;;;;;21.06;27.95;95041.78;1041389;28;1856;-55
2021/11/25 02:11:33;;;;;;;;;;;;;;;21.05;27.80;95042.88;1044849;28;1193;-56
2021/11/25 02:12:04;;;;;;;;;;;;;;;21.06;28.07;95033.88;1044533;28;1096;-57
2021/11/25 02:12:34;;;;;;;;;;;;;;;21.06;27.65;95039.16;1044436;28;1182;-57
2021/11/25 02:13:05;;;;;;;;;;;;;;;21.06;27.44;95027.84;1044977;28;1131;-56
2021/11/25 02:13:36;;;;;;;;;;;;;;;21.06;27.80;95028.59;1044663;28;1486;-57
2021/11/25 02:14:26;;;;;;;;;;;;;;;21.05;27.42;95029.69;1040675;28;1273;-57
2021/11/25 02:15:17;;;;;;;;;;;;;;;21.04;27.48;95030.75;1045005;28;1199;-58
2021/11/25 02:15:47;;;;;;;;;;;;;;;21.04;27.66;95028.13;1044395;28;1344;-57
2021/11/25 02:16:18;;;;;;;;;;;;;;;21.05;27.73;95023.66;1043581;28;2175;-58
2021/11/25 02:16:50;;;;;;;;;;;;;;;21.06;27.74;95031.25;1041257;28;990;-57
2021/11/25 02:17:20;;;;;;;;;;;;;;;21.04;27.62;95022.09;1044062;28;1190;-56
2021/11/25 02:17:54;;;;;;;;;;;;;;;21.04;27.50;95022.84;1044888;28;950;-55
2021/11/25 02:18:25;;;;;;;;;;;;;;;21.05;27.85;95024.44;1044671;28;1556;-59
2021/11/25 02:18:56;;;;;;;;;;;;;;;21.05;27.86;95013.88;1042689;28;961;-53
2021/11/25 02:19:28;;;;;;;;;;;;;;;21.05;27.59;95029.69;1044294;28;1965;-58
2021/11/25 02:19:59;;;;;;;;;;;;;;;21.06;27.54;95025.22;1044586;28;1107;-58
2021/11/25 02:20:31;;;;;;;;;;;;;;;21.04;27.34;95020.22;1040953;28;1139;-57
2021/11/25 02:21:02;;;;;;;;;;;;;;;21.05;27.85;95024.44;1033771;28;1944;-55
2021/11/25 02:21:33;;;;;;;;;;;;;;;21.05;27.67;95023.66;1039984;28;1539;-57
2021/11/25 02:22:13;;;;;;;;;;;;;;;21.05;27.63;95021.78;1039994;28;1090;-57
2021/11/25 02:22:44;;;;;;;;;;;;;;;21.05;27.71;95026.28;1039576;28;1832;-59
2021/11/25 02:23:15;;;;;;;;;;;;;;;21.04;27.69;95016.81;1036502;28;1074;-58
2021/11/25 02:23:55;;;;;;;;;;;;;;;21.04;27.58;95027.38;1035305;28;996;-57
2021/11/25 02:24:45;;;;;;;;;;;;;;;21.03;27.54;95026.56;1037599;28;1203;-58
2021/11/25 02:25:35;;;;;;;;;;;;;;;21.05;27.94;95026.28;1044819;28;1303;-56
2021/11/25 02:26:05;;;;;;;;;;;;;;;21.04;28.36;95022.84;1042986;28;1877;-57
2021/11/25 02:26:35;;;;;;;;;;;;;;;21.04;27.78;95022.84;1042888;28;1123;-58
2021/11/25 02:27:06;;;;;;;;;;;;;;;21.05;27.47;95023.66;1044549;28;1081;-58
2021/11/25 02:27:36;;;;;;;;;;;;;;;21.04;27.37;95019.47;1044404;28;1150;-55
2021/11/25 02:28:07;;;;;;;;;;;;;;;21.05;27.81;95024.44;1044908;28;1109;-56
2021/11/25 02:28:38;;;;;;;;;;;;;;;21.05;27.57;95021.78;1044845;28;1127;-56
2021/11/25 02:29:08;;;;;;;;;;;;;;;21.05;27.80;95026.28;1044594;28;1459;-58
2021/11/25 02:29:41;;;;;;;;;;;;;;;21.04;27.51;95022.84;1044377;28;1262;-55
2021/11/25 02:30:11;;;;;;;;;;;;;;;21.05;28.02;95027.06;1043308;28;1718;-59
2021/11/25 02:30:42;;;;;;;;;;;;;;;21.03;27.82;95029.22;1044246;28;1084;-59
2021/11/25 02:31:12;;;;;;;;;;;;;;;21.03;27.71;95026.56;1044312;28;1934;-56
2021/11/25 02:31:42;;;;;;;;;;;;;;;21.04;27.85;95028.13;1044487;28;1139;-55
2021/11/25 02:32:13;;;;;;;;;;;;;;;21.05;27.52;95032.34;1044310;28;1234;-58
2021/11/25 02:32:44;;;;;;;;;;;;;;;21.05;27.90;95028.91;1044794;28;1214;-59
2021/11/25 02:33:15;;;;;;;;;;;;;;;21.05;27.67;95031.53;1044715;28;1069;-57
2021/11/25 02:33:46;;;;;;;;;;;;;;;21.04;27.97;95030.75;1039334;28;1123;-58
2021/11/25 02:34:16;;;;;;;;;;;;;;;21.05;27.59;95031.53;1040171;28;1194;-56
2021/11/25 02:34:46;;;;;;;;;;;;;;;21.04;27.96;95035.28;1039444;28;1202;-56
2021/11/25 02:35:19;;;;;;;;;;;;;;;21.03;27.59;95023.94;1044683;28;1166;-57
2021/11/25 02:35:49;;;;;;;;;;;;;;;21.03;27.75;95023.94;1045019;28;1187;-55
2021/11/25 02:36:20;;;;;;;;;;;;;;;21.04;27.48;95024.72;1044093;28;1880;-58
2021/11/25 02:36:50;;;;;;;;;;;;;;;21.04;27.90;95022.09;1044799;28;1735;-56
2021/11/25 02:37:20;;;;;;;;;;;;;;;21.02;27.73;95025.00;1044969;28;988;-58
2021/11/25 02:37:51;;;;;;;;;;;;;;;21.02;27.49;95025.00;1044826;28;1131;-55
2021/11/25 02:38:21;;;;;;;;;;;;;;;21.02;27.49;95022.38;1044407;28;2127;-58
2021/11/25 02:38:53;;;;;;;;;;;;;;;21.03;27.75;95021.31;1043883;28;2160;-54
2021/11/25 02:39:23;;;;;;;;;;;;;;;21.03;27.58;95021.31;1042331;28;1968;-56
2021/11/25 02:39:53;;;;;;;;;;;;;;;21.03;27.66;95029.22;1043255;28;1407;-57
2021/11/25 02:40:32;;;;;;;;;;;;;;;21.02;27.58;95019.72;1044774;28;1143;-54
2021/11/25 02:41:02;;;;;;;;;;;;;;;21.02;27.73;95011.81;1044314;28;1934;-58
2021/11/25 02:41:33;;;;;;;;;;;;;;;21.03;27.65;95026.56;1043061;28;997;-58
2021/11/25 02:42:03;;;;;;;;;;;;;;;21.04;27.76;95019.47;1043985;28;1206;-58
2021/11/25 02:42:34;;;;;;;;;;;;;;;21.02;27.72;95009.19;1044425;28;1115;-55
2021/11/25 02:43:10;;;;;;;;;;;;;;;21.03;27.99;95008.13;1040417;28;1135;-52